createdAt,value
2024-02-02T00:02:19.626Z,73.97
2024-02-02T00:05:11.187Z,89.93
2024-02-02T00:07:46.500Z,76.10
2024-02-02T00:10:20.015Z,77.07
2024-02-02T00:12:55.333Z,75.27
2024-02-02T00:15:46.797Z,75.37
2024-02-02T00:18:20.745Z,76.73
2024-02-02T00:20:55.405Z,75.40
2024-02-02T00:23:31.245Z,68.83
2024-02-02T00:26:04.957Z,77.63
2024-02-02T00:28:38.622Z,79.60
2024-02-02T00:31:12.124Z,71.60
2024-02-02T00:33:45.467Z,69.23
2024-02-02T00:36:19.456Z,71.17
2024-02-02T00:38:55.029Z,72.07
2024-02-02T00:41:28.315Z,72.23
2024-02-02T00:44:02.044Z,70.67
2024-02-02T00:46:35.358Z,72.17
2024-02-02T00:49:08.883Z,70.87
2024-02-02T00:51:42.800Z,76.83
2024-02-02T00:54:18.785Z,74.47
2024-02-02T00:56:52.398Z,76.47
2024-02-02T00:59:26.128Z,82.57
2024-02-02T01:01:59.414Z,81.87
2024-02-02T01:04:32.621Z,80.87
2024-02-02T01:07:06.758Z,83.93
2024-02-02T01:09:42.216Z,85.97
2024-02-02T01:12:16.848Z,77.53
2024-02-02T01:15:07.405Z,80.20
2024-02-02T01:17:41.369Z,83.30
2024-02-02T01:20:16.294Z,80.97
2024-02-02T01:22:50.507Z,74.50
2024-02-02T01:25:25.820Z,77.73
2024-02-02T01:27:59.517Z,75.50
2024-02-02T01:30:33.855Z,78.33
2024-02-02T01:33:07.607Z,93.70
2024-02-02T01:35:41.232Z,84.53
2024-02-02T01:38:15.142Z,92.63
2024-02-02T01:40:51.146Z,90.60
2024-02-02T01:43:26.289Z,87.10
2024-02-02T01:46:00.262Z,92.50
2024-02-02T01:48:34.037Z,81.77
2024-02-02T01:51:07.793Z,91.97
2024-02-02T01:53:41.686Z,87.90
2024-02-02T01:56:17.254Z,90.40
2024-02-02T01:58:50.987Z,93.47
2024-02-02T02:01:24.653Z,107.90
2024-02-02T02:03:58.129Z,91.50
2024-02-02T02:06:32.193Z,89.73
2024-02-02T02:09:05.683Z,97.50
2024-02-02T02:11:41.167Z,90.00
2024-02-02T02:14:14.733Z,90.93
2024-02-02T02:16:50.500Z,109.07
2024-02-02T02:19:24.212Z,91.40
2024-02-02T02:21:59.411Z,90.73
2024-02-02T02:24:33.244Z,105.87
2024-02-02T02:27:06.944Z,102.47
2024-02-02T02:29:41.081Z,92.50
2024-02-02T02:32:14.654Z,99.00
2024-02-02T02:34:49.128Z,94.13
2024-02-02T02:37:25.914Z,91.67
2024-02-02T02:39:59.431Z,92.47
2024-02-02T02:42:33.092Z,100.50
2024-02-02T02:45:06.490Z,90.60
2024-02-02T02:47:41.480Z,98.87
2024-02-02T02:50:15.416Z,95.27
2024-02-02T02:52:50.721Z,91.60
2024-02-02T02:55:25.067Z,93.07
2024-02-02T02:57:58.708Z,94.60
2024-02-02T03:00:33.981Z,99.13
2024-02-02T03:03:07.565Z,94.53
2024-02-02T03:05:41.665Z,107.90
2024-02-02T03:08:17.711Z,99.00
2024-02-02T03:10:52.373Z,99.27
2024-02-02T03:13:25.895Z,96.93
2024-02-02T03:15:59.426Z,101.37
2024-02-02T03:18:33.049Z,101.93
2024-02-02T03:21:07.682Z,111.10
2024-02-02T03:23:43.581Z,98.57
2024-02-02T03:26:17.173Z,100.77
2024-02-02T03:28:50.831Z,100.30
2024-02-02T03:31:24.500Z,99.60
2024-02-02T03:33:58.702Z,102.30
2024-02-02T03:36:32.217Z,117.67
2024-02-02T03:39:08.239Z,107.50
2024-02-02T03:41:41.820Z,106.33
2024-02-02T03:44:16.152Z,98.33
2024-02-02T03:46:49.549Z,99.00
2024-02-02T03:49:23.052Z,98.60
2024-02-02T03:51:56.897Z,106.17
2024-02-02T03:54:33.071Z,99.93
2024-02-02T03:57:06.697Z,91.73
2024-02-02T03:59:40.172Z,112.87
2024-02-02T04:02:13.806Z,106.03
2024-02-02T04:04:47.764Z,109.60
2024-02-02T04:07:21.347Z,103.93
2024-02-02T04:09:57.116Z,112.57
2024-02-02T04:12:33.106Z,100.03
2024-02-02T04:15:06.662Z,98.40
2024-02-02T04:17:40.714Z,119.90
2024-02-02T04:20:15.378Z,97.80
2024-02-02T04:22:49.081Z,117.10
2024-02-02T04:25:24.475Z,112.50
2024-02-02T04:27:59.206Z,115.07
2024-02-02T04:30:32.885Z,113.07
2024-02-02T04:33:07.054Z,113.47
2024-02-02T04:35:40.600Z,105.30
2024-02-02T04:38:14.110Z,105.33
2024-02-02T04:40:49.547Z,107.87
2024-02-02T04:43:23.856Z,121.53
2024-02-02T04:45:57.089Z,118.93
2024-02-02T04:48:31.322Z,107.40
2024-02-02T04:51:05.140Z,98.20
2024-02-02T04:53:38.704Z,90.83
2024-02-02T04:56:15.352Z,89.30
2024-02-02T04:58:48.940Z,105.90
2024-02-02T05:01:22.708Z,112.37
2024-02-02T05:03:56.690Z,98.47
2024-02-02T05:06:30.664Z,106.43
2024-02-02T05:09:04.385Z,99.87
2024-02-02T05:11:39.546Z,99.53
2024-02-02T05:14:13.042Z,103.03
2024-02-02T05:16:47.055Z,104.90
2024-02-02T05:19:20.736Z,103.37
2024-02-02T05:21:54.917Z,97.50
2024-02-02T05:24:42.501Z,96.23
2024-02-02T05:27:20.865Z,102.80
2024-02-02T05:29:54.593Z,96.30
2024-02-02T05:32:28.274Z,90.37
2024-02-02T05:35:02.162Z,88.10
2024-02-02T05:37:36.308Z,101.47
2024-02-02T05:40:10.701Z,98.87
2024-02-02T05:42:46.222Z,101.40
2024-02-02T05:45:19.555Z,105.00
2024-02-02T05:50:42.813Z,112.50
2024-02-02T05:53:18.446Z,121.73
2024-02-02T05:55:52.710Z,117.00
2024-02-02T05:58:28.224Z,112.93
2024-02-02T06:01:01.803Z,123.97
2024-02-02T06:03:35.816Z,125.77
2024-02-02T06:06:09.722Z,131.97
2024-02-02T06:08:43.279Z,121.60
2024-02-02T06:11:17.356Z,117.70
2024-02-02T06:13:57.628Z,116.43
2024-02-02T06:16:31.122Z,134.60
2024-02-02T06:19:04.786Z,120.70
2024-02-02T06:21:38.208Z,120.80
2024-02-02T06:24:12.217Z,130.17
2024-02-02T06:26:46.001Z,115.77
2024-02-02T06:29:21.559Z,127.00
2024-02-02T06:31:55.228Z,114.47
2024-02-02T06:34:29.226Z,129.17
2024-02-02T06:37:03.077Z,126.30
2024-02-02T06:39:36.858Z,134.07
2024-02-02T06:42:10.710Z,127.23
2024-02-02T06:44:46.348Z,121.10
2024-02-02T06:47:20.650Z,119.73
2024-02-02T06:49:54.357Z,110.00
2024-02-02T06:52:27.929Z,115.57
2024-02-02T06:55:01.603Z,117.17
2024-02-02T06:57:36.381Z,104.93
2024-02-02T07:00:14.000Z,90.73
2024-02-02T07:02:48.761Z,101.70
2024-02-02T07:05:23.980Z,93.83
2024-02-02T07:07:58.224Z,83.83
2024-02-02T07:10:31.951Z,96.13
2024-02-02T07:13:06.012Z,91.73
2024-02-02T07:15:46.180Z,103.50
2024-02-02T07:18:36.840Z,105.07
2024-02-02T07:21:11.616Z,91.93
2024-02-02T07:23:51.018Z,90.33
2024-02-02T07:26:31.309Z,90.27
2024-02-02T07:29:06.289Z,82.77
2024-02-02T07:31:48.061Z,89.67
2024-02-02T07:34:45.543Z,81.83
2024-02-02T07:37:29.393Z,67.07
2024-02-02T07:40:03.133Z,79.50
2024-02-02T07:42:47.629Z,80.27
2024-02-02T07:45:22.519Z,72.83
2024-02-02T07:47:58.000Z,78.80
2024-02-02T07:50:31.832Z,74.00
2024-02-02T07:53:05.162Z,76.77
2024-02-02T07:55:38.548Z,71.30
2024-02-02T07:58:30.453Z,71.70
2024-02-02T08:01:04.439Z,71.33
2024-02-02T08:03:40.416Z,63.80
2024-02-02T08:06:15.650Z,73.90
2024-02-02T08:08:49.142Z,71.53
2024-02-02T08:11:27.257Z,66.30
2024-02-02T08:14:00.545Z,68.87
2024-02-02T08:16:34.043Z,82.83
2024-02-02T08:19:09.621Z,76.70
2024-02-02T08:21:42.975Z,67.03
2024-02-02T08:24:16.504Z,74.23
2024-02-02T08:26:50.232Z,80.33
2024-02-02T08:29:23.575Z,77.30
2024-02-02T08:31:56.809Z,79.00
2024-02-02T08:34:32.171Z,79.53
2024-02-02T08:37:05.750Z,77.67
2024-02-02T08:39:41.290Z,83.97
2024-02-02T08:42:22.131Z,83.67
2024-02-02T08:44:56.332Z,93.00
2024-02-02T08:47:33.111Z,84.57
2024-02-02T08:50:09.602Z,83.73
2024-02-02T08:52:45.901Z,79.30
2024-02-02T08:55:46.962Z,83.17
2024-02-02T08:58:26.760Z,80.63
2024-02-02T09:01:02.179Z,73.53
2024-02-02T09:03:46.895Z,77.80
2024-02-02T09:06:46.193Z,83.93
2024-02-02T09:09:24.562Z,86.93
2024-02-02T09:11:58.620Z,75.63
2024-02-02T09:14:31.967Z,75.07
2024-02-02T09:17:06.344Z,78.17
2024-02-02T09:19:45.920Z,85.70
2024-02-02T09:22:22.161Z,68.20
2024-02-02T09:24:56.600Z,77.87
2024-02-02T09:27:38.414Z,78.67
2024-02-02T09:30:16.141Z,76.17
2024-02-02T09:32:51.153Z,68.70
2024-02-02T09:35:52.976Z,78.97
2024-02-02T09:38:28.585Z,76.83
2024-02-02T09:41:21.925Z,64.30
2024-02-02T09:44:02.837Z,72.23
2024-02-02T09:46:43.856Z,77.00
2024-02-02T09:49:20.999Z,64.30
2024-02-02T09:52:03.394Z,64.30
2024-02-02T09:54:43.093Z,72.70
2024-02-02T09:57:20.007Z,65.43
2024-02-02T10:00:00.214Z,65.17
2024-02-02T10:02:47.678Z,63.60
2024-02-02T10:05:28.072Z,63.47
2024-02-02T10:08:15.691Z,66.83
2024-02-02T10:11:02.667Z,64.83
2024-02-02T10:13:47.267Z,67.83
2024-02-02T10:16:35.670Z,62.97
2024-02-02T10:19:23.433Z,64.87
2024-02-02T10:22:05.672Z,70.17
2024-02-02T10:24:55.039Z,64.20
2024-02-02T10:27:44.174Z,68.17
2024-02-02T10:30:35.402Z,67.20
2024-02-02T10:33:25.543Z,73.67
2024-02-02T10:36:05.654Z,68.03
2024-02-02T10:38:56.918Z,71.07
2024-02-02T10:41:36.620Z,65.40
2024-02-02T10:44:18.447Z,58.47
2024-02-02T10:46:58.338Z,63.23
2024-02-02T10:49:44.213Z,62.23
2024-02-02T10:52:23.718Z,68.77
2024-02-02T10:55:08.308Z,72.50
2024-02-02T10:57:46.778Z,66.80
2024-02-02T11:00:25.947Z,63.03
2024-02-02T11:03:11.665Z,61.90
2024-02-02T11:05:48.356Z,65.23
2024-02-02T11:08:23.929Z,63.93
2024-02-02T11:11:02.434Z,64.00
2024-02-02T11:13:40.806Z,67.93
2024-02-02T11:16:31.672Z,63.00
2024-02-02T11:19:17.565Z,57.17
2024-02-02T11:22:21.456Z,55.17
2024-02-02T11:25:10.659Z,62.03
2024-02-02T11:27:51.503Z,63.43
2024-02-02T11:30:41.811Z,54.07
2024-02-02T11:33:30.098Z,57.57
2024-02-02T11:36:11.890Z,59.30
2024-02-02T11:38:53.887Z,57.80
2024-02-02T11:44:20.977Z,55.87
2024-02-02T11:46:56.462Z,56.47
2024-02-02T11:49:35.598Z,56.77
2024-02-02T11:52:10.529Z,59.33
2024-02-02T11:54:50.185Z,56.03
2024-02-02T11:57:27.050Z,50.80
2024-02-02T12:00:03.604Z,53.67
2024-02-02T12:03:00.448Z,59.93
2024-02-02T12:05:42.309Z,51.03
2024-02-02T12:08:26.282Z,52.50
2024-02-02T12:11:02.278Z,50.13
2024-02-02T12:13:38.313Z,52.07
2024-02-02T12:16:13.677Z,52.27
2024-02-02T12:18:47.739Z,54.00
2024-02-02T12:21:24.987Z,54.57
2024-02-02T12:23:58.995Z,52.10
2024-02-02T12:26:32.849Z,49.40
2024-02-02T12:29:06.604Z,52.10
2024-02-02T12:31:40.056Z,44.43
2024-02-02T12:34:14.016Z,45.10
2024-02-02T12:36:50.409Z,49.40
2024-02-02T12:39:23.711Z,42.50
2024-02-02T12:41:58.840Z,44.90
2024-02-02T12:44:32.124Z,46.73
2024-02-02T12:47:07.144Z,46.63
2024-02-02T12:49:41.106Z,46.17
2024-02-02T12:52:18.410Z,47.40
2024-02-02T12:54:54.538Z,45.07
2024-02-02T12:57:45.686Z,45.97
2024-02-02T13:00:21.307Z,48.10
2024-02-02T13:02:56.672Z,42.47
2024-02-02T13:05:30.872Z,44.43
2024-02-02T13:08:06.356Z,44.07
2024-02-02T13:10:43.967Z,51.87
2024-02-02T13:13:18.326Z,42.50
2024-02-02T13:15:51.757Z,44.07
2024-02-02T13:18:27.163Z,43.43
2024-02-02T13:21:00.655Z,48.50
2024-02-02T13:23:38.018Z,45.50
2024-02-02T13:26:13.147Z,43.53
2024-02-02T13:28:53.357Z,44.83
2024-02-02T13:31:28.592Z,43.90
2024-02-02T13:34:07.130Z,45.63
2024-02-02T13:36:46.275Z,45.73
2024-02-02T13:39:27.989Z,47.83
2024-02-02T13:42:07.855Z,41.67
2024-02-02T13:44:41.260Z,41.53
2024-02-02T13:47:22.661Z,42.67
2024-02-02T13:50:06.306Z,38.03
2024-02-02T13:52:39.896Z,39.73
2024-02-02T13:55:15.105Z,42.80
2024-02-02T13:57:50.110Z,40.10
2024-02-02T14:00:25.681Z,40.20
2024-02-02T14:02:59.076Z,43.13
2024-02-02T14:05:33.693Z,42.60
2024-02-02T14:08:07.066Z,44.27
2024-02-02T14:10:52.526Z,42.63
2024-02-02T14:13:26.023Z,43.40
2024-02-02T14:16:01.635Z,44.03
2024-02-02T14:18:36.972Z,42.80
2024-02-02T14:21:18.243Z,44.00
2024-02-02T14:23:51.544Z,44.93
2024-02-02T14:26:27.152Z,38.00
2024-02-02T14:29:04.738Z,45.73
2024-02-02T14:31:38.715Z,36.63
2024-02-02T14:34:12.273Z,39.80
2024-02-02T14:36:46.134Z,37.57
2024-02-02T14:39:26.608Z,37.47
2024-02-02T14:42:02.688Z,36.43
2024-02-02T14:44:36.227Z,39.33
2024-02-02T14:47:11.629Z,36.03
2024-02-02T14:49:45.181Z,38.03
2024-02-02T14:52:18.773Z,42.53
2024-02-02T14:54:52.467Z,39.63
2024-02-02T14:57:28.391Z,36.50
2024-02-02T15:00:08.051Z,39.87
2024-02-02T15:02:41.661Z,36.40
2024-02-02T15:05:16.016Z,39.10
2024-02-02T15:07:49.772Z,35.80
2024-02-02T15:10:23.252Z,37.10
2024-02-02T15:12:58.569Z,35.33
2024-02-02T15:15:32.127Z,35.73
2024-02-02T15:18:06.511Z,33.63
2024-02-02T15:20:39.873Z,39.73
2024-02-02T15:23:13.446Z,34.20
2024-02-02T15:25:47.754Z,33.03
2024-02-02T15:28:25.945Z,34.43
2024-02-02T15:30:59.393Z,33.43
2024-02-02T15:33:34.734Z,37.17
2024-02-02T15:36:08.566Z,35.37
2024-02-02T15:38:59.615Z,33.20
2024-02-02T15:41:37.488Z,31.67
2024-02-02T15:44:14.518Z,37.57
2024-02-02T15:47:00.174Z,37.00
2024-02-02T15:49:33.645Z,33.23
2024-02-02T15:52:07.269Z,32.57
2024-02-02T15:54:40.892Z,37.23
2024-02-02T15:57:14.661Z,32.37
2024-02-02T15:59:50.183Z,25.00
2024-02-02T16:02:25.342Z,28.13
2024-02-02T16:05:01.882Z,34.60
2024-02-02T16:07:35.946Z,27.00
2024-02-02T16:10:10.190Z,27.53
2024-02-02T16:12:43.696Z,24.97
2024-02-02T16:15:20.068Z,21.60
2024-02-02T16:17:53.770Z,24.50
2024-02-02T16:20:27.699Z,24.80
2024-02-02T16:23:01.601Z,24.67
2024-02-02T16:25:34.723Z,25.87
2024-02-02T16:28:08.077Z,24.87
2024-02-02T16:30:44.506Z,25.27
2024-02-02T16:33:18.181Z,26.50
2024-02-02T16:35:51.456Z,31.47
2024-02-02T16:38:24.637Z,22.10
2024-02-02T16:40:57.956Z,24.87
2024-02-02T16:43:31.376Z,25.97
2024-02-02T16:46:08.162Z,28.13
2024-02-02T16:48:42.052Z,23.60
2024-02-02T16:51:19.974Z,24.87
2024-02-02T16:53:53.437Z,25.70
2024-02-02T16:56:27.247Z,21.80
2024-02-02T16:59:00.854Z,25.27
2024-02-02T17:01:36.816Z,24.30
2024-02-02T17:04:10.660Z,26.53
2024-02-02T17:06:45.625Z,25.30
2024-02-02T17:09:19.751Z,25.43
2024-02-02T17:11:53.280Z,29.90
2024-02-02T17:14:26.743Z,27.37
2024-02-02T17:17:04.818Z,26.53
2024-02-02T17:19:38.416Z,32.60
2024-02-02T17:22:11.755Z,21.83
2024-02-02T17:24:46.336Z,27.93
2024-02-02T17:27:20.080Z,30.20
2024-02-02T17:29:53.365Z,25.70
2024-02-02T17:32:29.273Z,26.70
2024-02-02T17:35:02.619Z,25.47
2024-02-02T17:37:36.580Z,25.80
2024-02-02T17:40:11.305Z,24.50
2024-02-02T17:42:45.278Z,24.57
2024-02-02T17:45:19.044Z,25.93
2024-02-02T17:47:56.013Z,27.47
2024-02-02T17:50:29.527Z,27.20
2024-02-02T17:53:02.832Z,30.43
2024-02-02T17:55:35.943Z,25.33
2024-02-02T17:58:10.035Z,28.27
2024-02-02T18:00:44.055Z,22.63
2024-02-02T18:03:20.032Z,23.63
2024-02-02T18:05:53.600Z,25.30
2024-02-02T18:08:28.589Z,21.23
2024-02-02T18:11:01.885Z,24.47
2024-02-02T18:13:35.331Z,21.27
2024-02-02T18:16:10.432Z,28.53
2024-02-02T18:18:48.118Z,28.03
2024-02-02T18:21:21.343Z,24.53
2024-02-02T18:23:54.915Z,22.97
2024-02-02T18:26:46.223Z,21.37
2024-02-02T18:29:19.582Z,22.97
2024-02-02T18:31:53.547Z,25.23
2024-02-02T18:34:29.163Z,22.63
2024-02-02T18:37:02.921Z,27.37
2024-02-02T18:39:36.398Z,18.73
2024-02-02T18:42:10.046Z,21.03
2024-02-02T18:44:44.069Z,20.77
2024-02-02T18:47:21.268Z,22.63
2024-02-02T18:49:56.729Z,21.60
2024-02-02T18:52:32.673Z,22.03
2024-02-02T18:55:05.890Z,22.43
2024-02-02T18:57:39.407Z,18.77
2024-02-02T19:00:14.037Z,19.97
2024-02-02T19:02:47.797Z,23.90
2024-02-02T19:05:23.510Z,16.17
2024-02-02T19:07:56.883Z,18.37
2024-02-02T19:10:30.804Z,16.87
2024-02-02T19:13:04.486Z,17.43
2024-02-02T19:15:38.089Z,16.97
2024-02-02T19:18:12.037Z,15.87
2024-02-02T19:20:47.588Z,17.63
2024-02-02T19:23:21.091Z,17.90
2024-02-02T19:25:54.352Z,16.50
2024-02-02T19:28:27.743Z,17.67
2024-02-02T19:31:01.530Z,16.33
2024-02-02T19:33:35.591Z,17.03
2024-02-02T19:36:11.475Z,17.70
2024-02-02T19:38:45.706Z,15.97
2024-02-02T19:41:23.506Z,15.93
2024-02-02T19:43:57.315Z,23.77
2024-02-02T19:46:31.160Z,26.87
2024-02-02T19:49:08.046Z,26.93
2024-02-02T19:51:45.389Z,19.73
2024-02-02T19:54:19.247Z,18.07
2024-02-02T19:56:53.051Z,16.87
2024-02-02T19:59:26.263Z,19.37
2024-02-02T20:02:03.277Z,17.73
2024-02-02T20:04:37.259Z,22.67
2024-02-02T20:07:12.499Z,17.57
2024-02-02T20:09:46.148Z,20.47
2024-02-02T20:12:19.853Z,17.33
2024-02-02T20:14:53.355Z,20.30
2024-02-02T20:17:28.020Z,26.67
2024-02-02T20:20:01.727Z,25.03
2024-02-02T20:22:38.872Z,21.50
2024-02-02T20:25:12.939Z,21.70
2024-02-02T20:27:46.455Z,24.07
2024-02-02T20:30:20.423Z,23.63
2024-02-02T20:32:54.510Z,25.90
2024-02-02T20:35:28.156Z,24.53
2024-02-02T20:38:03.589Z,25.87
2024-02-02T20:40:36.965Z,22.23
2024-02-02T20:43:10.463Z,22.23
2024-02-02T20:45:43.805Z,25.73
2024-02-02T20:48:17.392Z,28.27
2024-02-02T20:50:51.033Z,25.27
2024-02-02T20:53:26.770Z,26.20
2024-02-02T20:56:00.683Z,26.20
2024-02-02T20:58:34.841Z,29.33
2024-02-02T21:01:09.010Z,27.57
2024-02-02T21:03:43.193Z,34.67
2024-02-02T21:06:16.754Z,43.97
2024-02-02T21:08:53.966Z,34.27
2024-02-02T21:11:28.035Z,36.57
2024-02-02T21:14:01.356Z,34.20
2024-02-02T21:16:35.452Z,41.83
2024-02-02T21:19:11.173Z,43.90
2024-02-02T21:21:48.215Z,42.10
2024-02-02T21:24:24.549Z,38.67
2024-02-02T21:26:57.948Z,40.93
2024-02-02T21:32:20.572Z,38.37
2024-02-02T21:34:54.102Z,34.47
2024-02-02T21:37:27.627Z,34.93
2024-02-02T21:40:03.000Z,34.97
2024-02-02T21:42:36.872Z,33.67
2024-02-02T21:45:10.630Z,33.47
2024-02-02T21:47:44.176Z,35.23
2024-02-02T21:50:34.790Z,33.33
2024-02-02T21:53:08.364Z,33.53
2024-02-02T21:55:43.610Z,33.10
2024-02-02T21:58:17.410Z,32.80
2024-02-02T22:00:51.307Z,31.90
2024-02-02T22:03:24.896Z,31.17
2024-02-02T22:05:58.260Z,32.20
2024-02-02T22:08:31.700Z,31.03
2024-02-02T22:11:07.396Z,31.47
2024-02-02T22:13:40.900Z,25.70
2024-02-02T22:16:16.051Z,29.87
2024-02-02T22:18:51.481Z,26.00
2024-02-02T22:21:27.942Z,23.63
2024-02-02T22:24:01.069Z,27.37
2024-02-02T22:26:36.351Z,23.33
2024-02-02T22:29:08.199Z,29.20
2024-02-02T22:31:41.634Z,25.17
2024-02-02T22:34:15.391Z,30.00
2024-02-02T22:36:49.404Z,22.60
2024-02-02T22:39:24.883Z,23.07
2024-02-02T22:42:01.300Z,23.83
2024-02-02T22:44:34.808Z,27.13
2024-02-02T22:47:08.360Z,22.27
2024-02-02T22:49:41.537Z,30.50
2024-02-02T22:52:31.247Z,26.20
2024-02-02T22:55:06.314Z,28.40
2024-02-02T22:57:43.084Z,23.77
2024-02-02T23:00:22.785Z,22.27
2024-02-02T23:02:56.363Z,24.30
2024-02-02T23:05:30.104Z,25.23
2024-02-02T23:08:04.046Z,33.60
2024-02-02T23:10:37.308Z,23.10
2024-02-02T23:13:12.805Z,23.97
2024-02-02T23:15:47.986Z,23.63
2024-02-02T23:18:21.322Z,28.37
2024-02-02T23:20:56.619Z,27.37
2024-02-02T23:23:31.619Z,29.43
2024-02-02T23:26:06.027Z,24.07
2024-02-02T23:28:42.087Z,22.70
2024-02-02T23:31:15.383Z,26.10
2024-02-02T23:33:48.614Z,25.77
2024-02-02T23:36:22.377Z,23.00
2024-02-02T23:38:55.888Z,28.87
2024-02-02T23:41:29.375Z,23.97
2024-02-02T23:44:04.797Z,21.23
2024-02-02T23:46:38.351Z,24.00
2024-02-02T23:49:11.912Z,23.03
2024-02-02T23:51:46.578Z,20.57
2024-02-02T23:54:19.921Z,25.23
2024-02-02T23:56:53.998Z,18.97
2024-02-02T23:59:30.030Z,22.17
